createdAt,value
2017-10-28T00:01:09.977Z,17.30
2017-10-28T00:03:38.340Z,19.90
2017-10-28T00:06:06.990Z,22.20
2017-10-28T00:08:35.705Z,17.10
2017-10-28T00:11:03.392Z,19.40
2017-10-28T00:13:31.092Z,18.97
2017-10-28T00:15:59.527Z,19.87
2017-10-28T00:18:27.160Z,17.90
2017-10-28T00:20:54.986Z,15.90
2017-10-28T00:23:23.522Z,18.13
2017-10-28T00:25:51.158Z,19.77
2017-10-28T00:28:18.809Z,19.73
2017-10-28T00:33:55.641Z,19.97
2017-10-28T00:36:23.345Z,25.03
2017-10-28T00:38:51.774Z,21.03
2017-10-28T00:41:19.526Z,15.63
2017-10-28T00:43:48.149Z,19.77
2017-10-28T00:46:15.808Z,20.60
2017-10-28T00:48:43.491Z,19.87
2017-10-28T00:51:11.889Z,22.60
2017-10-28T00:53:39.531Z,22.50
2017-10-28T00:56:07.949Z,21.90
2017-10-28T00:58:36.303Z,25.13
2017-10-28T01:01:04.087Z,18.50
2017-10-28T01:03:31.743Z,18.87
2017-10-28T01:05:59.468Z,24.60
2017-10-28T01:08:27.897Z,19.73
2017-10-28T01:10:55.649Z,17.33
2017-10-28T01:13:23.327Z,19.50
2017-10-28T01:15:51.089Z,22.57
2017-10-28T01:18:18.855Z,22.07
2017-10-28T01:20:46.528Z,24.13
2017-10-28T01:23:14.331Z,23.27
2017-10-28T01:25:42.785Z,22.50
2017-10-28T01:28:10.424Z,20.37
2017-10-28T01:30:38.118Z,22.07
2017-10-28T01:33:06.516Z,26.17
2017-10-28T01:35:34.304Z,23.63
2017-10-28T01:38:01.932Z,20.40
2017-10-28T01:40:30.368Z,19.80
2017-10-28T01:42:58.020Z,20.00
2017-10-28T01:45:25.688Z,25.47
2017-10-28T01:47:53.567Z,18.50
2017-10-28T01:50:21.233Z,18.73
2017-10-28T01:52:49.854Z,21.93
2017-10-28T01:55:17.594Z,21.80
2017-10-28T01:57:45.974Z,25.30
2017-10-28T02:00:13.650Z,19.30
2017-10-28T02:02:41.291Z,24.23
2017-10-28T02:05:09.763Z,19.30
2017-10-28T02:07:38.152Z,19.87
2017-10-28T02:10:06.629Z,25.40
2017-10-28T02:12:35.304Z,26.83
2017-10-28T02:15:03.747Z,21.90
2017-10-28T02:17:31.440Z,18.03
2017-10-28T02:19:59.899Z,22.07
2017-10-28T02:22:27.775Z,18.17
2017-10-28T02:24:55.415Z,22.13
2017-10-28T02:27:23.071Z,22.40
2017-10-28T02:29:50.818Z,24.43
2017-10-28T02:32:18.472Z,24.13
2017-10-28T02:34:46.132Z,25.23
2017-10-28T02:37:13.778Z,22.50
2017-10-28T02:39:41.498Z,24.23
2017-10-28T02:42:09.139Z,25.20
2017-10-28T02:44:36.803Z,18.17
2017-10-28T02:47:04.457Z,23.23
2017-10-28T02:49:32.093Z,21.77
2017-10-28T02:51:59.769Z,24.03
2017-10-28T02:54:27.392Z,25.93
2017-10-28T02:56:55.092Z,24.60
2017-10-28T02:59:22.742Z,24.37
2017-10-28T03:01:50.408Z,27.60
2017-10-28T03:04:18.084Z,30.27
2017-10-28T03:06:45.743Z,25.20
2017-10-28T03:09:13.454Z,21.60
2017-10-28T03:11:41.148Z,28.77
2017-10-28T03:14:09.660Z,29.77
2017-10-28T03:16:37.310Z,24.93
2017-10-28T03:19:04.944Z,24.27
2017-10-28T03:21:32.693Z,24.83
2017-10-28T03:24:00.380Z,29.13
2017-10-28T03:26:28.058Z,25.17
2017-10-28T03:28:55.695Z,26.70
2017-10-28T03:31:23.369Z,27.67
2017-10-28T03:33:51.053Z,26.03
2017-10-28T03:36:18.699Z,29.00
2017-10-28T03:38:46.405Z,31.23
2017-10-28T03:41:14.048Z,28.03
2017-10-28T03:43:42.463Z,28.10
2017-10-28T03:46:10.112Z,23.10
2017-10-28T03:48:37.924Z,27.30
2017-10-28T03:51:05.560Z,30.73
2017-10-28T03:53:33.168Z,26.70
2017-10-28T03:56:01.587Z,25.07
2017-10-28T03:58:29.266Z,28.60
2017-10-28T04:00:56.943Z,25.17
2017-10-28T04:03:24.606Z,29.33
2017-10-28T04:05:52.292Z,22.03
2017-10-28T04:08:19.926Z,26.90
2017-10-28T04:10:47.586Z,26.27
2017-10-28T04:13:15.299Z,24.60
2017-10-28T04:15:42.956Z,23.97
2017-10-28T04:18:10.615Z,28.63
2017-10-28T04:20:38.252Z,21.50
2017-10-28T04:23:06.832Z,27.33
2017-10-28T04:25:35.227Z,28.70
2017-10-28T04:28:02.924Z,26.47
2017-10-28T04:30:30.596Z,24.93
2017-10-28T04:32:58.258Z,29.10
2017-10-28T04:35:26.008Z,28.13
2017-10-28T04:37:53.680Z,25.00
2017-10-28T04:40:21.369Z,27.97
2017-10-28T04:42:49.756Z,24.43
2017-10-28T04:45:18.168Z,24.90
2017-10-28T04:47:46.600Z,24.30
2017-10-28T04:50:15.004Z,29.80
2017-10-28T04:52:42.681Z,25.37
2017-10-28T04:55:10.317Z,34.00
2017-10-28T04:57:38.009Z,31.73
2017-10-28T05:00:05.690Z,28.60
2017-10-28T05:02:33.353Z,31.23
2017-10-28T05:05:01.039Z,25.00
2017-10-28T05:07:28.667Z,30.23
2017-10-28T05:09:56.360Z,33.53
2017-10-28T05:12:24.757Z,36.60
2017-10-28T05:14:52.510Z,27.30
2017-10-28T05:17:20.140Z,31.73
2017-10-28T05:19:47.800Z,27.50
2017-10-28T05:22:15.444Z,29.57
2017-10-28T05:24:43.087Z,28.30
2017-10-28T05:27:10.743Z,27.70
2017-10-28T05:29:38.362Z,30.17
2017-10-28T05:32:06.812Z,30.00
2017-10-28T05:34:34.432Z,26.63
2017-10-28T05:37:02.066Z,29.17
2017-10-28T05:39:29.731Z,23.87
2017-10-28T05:41:58.155Z,26.00
2017-10-28T05:44:25.840Z,27.07
2017-10-28T05:46:53.591Z,28.73
2017-10-28T05:49:21.331Z,26.07
2017-10-28T05:51:48.982Z,26.17
2017-10-28T05:54:16.611Z,30.80
2017-10-28T05:56:45.044Z,27.00
2017-10-28T05:59:12.697Z,26.90
2017-10-28T06:01:40.376Z,28.70
2017-10-28T06:04:08.025Z,25.23
2017-10-28T06:06:35.738Z,29.07
2017-10-28T06:09:04.203Z,25.37
2017-10-28T06:11:32.618Z,32.20
2017-10-28T06:14:00.314Z,28.20
2017-10-28T06:16:27.954Z,25.77
2017-10-28T06:18:55.629Z,30.73
2017-10-28T06:21:23.268Z,33.70
2017-10-28T06:23:52.162Z,29.27
2017-10-28T06:26:19.795Z,22.10
2017-10-28T06:28:47.469Z,31.47
2017-10-28T06:31:15.219Z,30.20
2017-10-28T06:33:42.856Z,28.43
2017-10-28T06:36:10.509Z,23.37
2017-10-28T06:38:38.912Z,25.40
2017-10-28T06:41:06.627Z,28.07
2017-10-28T06:43:34.269Z,27.57
2017-10-28T06:46:01.885Z,23.20
2017-10-28T06:48:29.535Z,36.47
2017-10-28T06:50:57.942Z,25.93
2017-10-28T06:53:25.595Z,27.53
2017-10-28T06:55:53.233Z,31.40
2017-10-28T06:58:20.951Z,31.10
2017-10-28T07:00:48.582Z,28.17
2017-10-28T07:03:16.200Z,22.97
2017-10-28T07:05:43.930Z,25.03
2017-10-28T07:08:11.625Z,24.17
2017-10-28T07:10:40.097Z,22.00
2017-10-28T07:13:07.807Z,25.87
2017-10-28T07:15:35.517Z,19.67
2017-10-28T07:18:03.268Z,28.87
2017-10-28T07:20:30.899Z,33.27
2017-10-28T07:22:58.521Z,23.10
2017-10-28T07:25:26.974Z,20.20
2017-10-28T07:27:54.607Z,22.00
2017-10-28T07:30:22.213Z,25.07
2017-10-28T07:32:50.637Z,24.17
2017-10-28T07:35:18.263Z,18.20
2017-10-28T07:37:46.712Z,18.60
2017-10-28T07:40:14.455Z,24.53
2017-10-28T07:42:42.094Z,24.50
2017-10-28T07:45:09.734Z,19.67
2017-10-28T07:47:37.372Z,23.90
2017-10-28T07:50:05.054Z,21.70
2017-10-28T07:52:32.715Z,20.57
2017-10-28T07:55:00.512Z,19.97
2017-10-28T07:57:28.136Z,25.03
2017-10-28T07:59:55.755Z,19.90
2017-10-28T08:02:23.400Z,18.70
2017-10-28T08:04:51.037Z,20.97
2017-10-28T08:07:18.717Z,24.07
2017-10-28T08:09:46.392Z,20.00
2017-10-28T08:12:14.095Z,19.23
2017-10-28T08:14:41.774Z,21.03
2017-10-28T08:17:09.500Z,17.80
2017-10-28T08:19:37.951Z,16.73
2017-10-28T08:22:05.635Z,14.50
2017-10-28T08:24:34.092Z,21.20
2017-10-28T08:27:01.764Z,20.70
2017-10-28T08:29:29.431Z,17.67
2017-10-28T08:31:57.092Z,24.67
2017-10-28T08:34:25.544Z,19.73
2017-10-28T08:36:53.253Z,20.43
2017-10-28T08:39:20.908Z,18.60
2017-10-28T08:41:48.555Z,19.03
2017-10-28T08:44:16.944Z,19.60
2017-10-28T08:46:45.424Z,22.00
2017-10-28T08:49:13.064Z,13.93
2017-10-28T08:51:42.279Z,14.90
2017-10-28T08:54:10.715Z,16.70
2017-10-28T08:56:38.388Z,20.33
2017-10-28T08:59:06.036Z,18.13
2017-10-28T09:01:33.680Z,19.93
2017-10-28T09:04:01.342Z,32.90
2017-10-28T09:06:28.964Z,19.63
2017-10-28T09:08:56.640Z,18.37
2017-10-28T09:11:24.288Z,19.07
2017-10-28T09:13:51.978Z,24.47
2017-10-28T09:16:19.644Z,18.37
2017-10-28T09:18:47.297Z,17.10
2017-10-28T09:21:15.733Z,19.50
2017-10-28T09:23:44.142Z,17.53
2017-10-28T09:26:11.872Z,20.30
2017-10-28T09:28:40.253Z,16.50
2017-10-28T09:31:07.941Z,20.07
2017-10-28T09:33:35.570Z,25.57
2017-10-28T09:36:03.952Z,15.87
2017-10-28T09:38:32.402Z,15.10
2017-10-28T09:41:00.037Z,14.80
2017-10-28T09:43:29.810Z,20.80
2017-10-28T09:45:57.611Z,17.93
2017-10-28T09:48:25.606Z,19.67
2017-10-28T09:50:53.310Z,16.93
2017-10-28T09:53:21.202Z,17.50
2017-10-28T09:55:49.051Z,15.90
2017-10-28T09:58:17.160Z,15.27
2017-10-28T10:00:44.907Z,13.23
2017-10-28T10:03:13.095Z,15.33
2017-10-28T10:05:41.128Z,22.70
2017-10-28T10:08:09.739Z,16.13
2017-10-28T10:10:38.241Z,15.43
2017-10-28T10:13:06.308Z,17.17
2017-10-28T10:15:34.244Z,16.40
2017-10-28T10:18:01.899Z,16.97
2017-10-28T10:20:31.050Z,15.07
2017-10-28T10:22:58.735Z,11.83
2017-10-28T10:25:26.365Z,15.27
2017-10-28T10:27:54.782Z,17.50
2017-10-28T10:30:22.681Z,13.60
2017-10-28T10:32:51.209Z,14.97
2017-10-28T10:35:18.900Z,13.77
2017-10-28T10:37:46.560Z,10.93
2017-10-28T10:40:14.431Z,16.43
2017-10-28T10:42:42.336Z,8.20
2017-10-28T10:45:10.839Z,9.77
2017-10-28T10:47:38.546Z,18.67
2017-10-28T10:50:07.034Z,9.53
2017-10-28T10:52:35.601Z,11.60
2017-10-28T10:55:05.450Z,20.00
2017-10-28T10:57:34.343Z,7.10
2017-10-28T11:00:02.737Z,8.10
2017-10-28T11:02:31.763Z,10.63
2017-10-28T11:04:59.458Z,9.50
2017-10-28T11:07:27.991Z,10.03
2017-10-28T11:09:56.010Z,12.53
2017-10-28T11:12:23.847Z,10.37
2017-10-28T11:14:51.812Z,12.20
2017-10-28T11:17:19.622Z,7.50
2017-10-28T11:19:47.412Z,10.83
2017-10-28T11:22:23.636Z,7.93
2017-10-28T11:24:52.214Z,9.90
2017-10-28T11:27:20.165Z,9.83
2017-10-28T11:29:47.981Z,9.80
2017-10-28T11:32:15.840Z,11.20
2017-10-28T11:34:43.526Z,9.10
2017-10-28T11:37:11.845Z,9.77
2017-10-28T11:39:39.573Z,12.13
2017-10-28T11:42:07.211Z,15.60
2017-10-28T11:44:34.886Z,10.83
2017-10-28T11:47:02.511Z,10.87
2017-10-28T11:49:30.225Z,8.43
2017-10-28T11:51:57.853Z,10.47
2017-10-28T11:54:25.570Z,17.73
2017-10-28T11:56:53.995Z,7.83
2017-10-28T11:59:21.620Z,9.13
2017-10-28T12:01:50.065Z,12.00
2017-10-28T12:04:17.739Z,13.73
2017-10-28T12:06:45.394Z,17.00
2017-10-28T12:09:13.313Z,10.30
2017-10-28T12:11:40.969Z,10.67
2017-10-28T12:14:08.628Z,7.83
2017-10-28T12:16:36.304Z,10.67
2017-10-28T12:19:04.011Z,11.40
2017-10-28T12:21:31.711Z,11.90
2017-10-28T12:24:00.242Z,8.23
2017-10-28T12:26:28.639Z,11.93
2017-10-28T12:28:56.256Z,8.10
2017-10-28T12:31:23.909Z,9.87
2017-10-28T12:33:51.572Z,13.63
2017-10-28T12:36:19.446Z,10.90
2017-10-28T12:38:47.282Z,13.80
2017-10-28T12:41:14.970Z,7.50
2017-10-28T12:43:42.587Z,10.70
2017-10-28T12:46:10.192Z,11.20
2017-10-28T12:48:37.871Z,9.60
2017-10-28T12:51:05.481Z,8.70
2017-10-28T12:53:33.132Z,12.23
2017-10-28T12:56:00.736Z,8.23
2017-10-28T12:58:28.408Z,9.23
2017-10-28T13:00:56.063Z,10.80
2017-10-28T13:03:23.730Z,8.30
2017-10-28T13:05:51.397Z,10.47
2017-10-28T13:08:19.787Z,12.17
2017-10-28T13:10:48.239Z,10.43
2017-10-28T13:13:15.848Z,12.83
2017-10-28T13:15:44.134Z,17.33
2017-10-28T13:18:11.802Z,13.83
2017-10-28T13:20:39.445Z,8.73
2017-10-28T13:23:07.090Z,10.13
2017-10-28T13:25:34.723Z,9.93
2017-10-28T13:28:02.411Z,15.47
2017-10-28T13:30:30.025Z,9.53
2017-10-28T13:32:57.695Z,11.23
2017-10-28T13:35:25.316Z,6.93
2017-10-28T13:37:52.944Z,10.10
2017-10-28T13:40:21.450Z,8.10
2017-10-28T13:42:49.132Z,10.10
2017-10-28T13:45:16.873Z,9.43
2017-10-28T13:47:45.325Z,14.00
2017-10-28T13:50:13.911Z,6.83
2017-10-28T13:52:41.549Z,9.67
2017-10-28T13:55:09.176Z,12.50
2017-10-28T13:57:36.842Z,6.90
2017-10-28T14:00:04.564Z,6.70
2017-10-28T14:02:32.213Z,8.57
2017-10-28T14:04:59.823Z,8.97
2017-10-28T14:07:27.472Z,8.83
2017-10-28T14:09:55.175Z,10.93
2017-10-28T14:12:23.557Z,10.90
2017-10-28T14:14:51.206Z,11.33
2017-10-28T14:17:18.884Z,7.70
2017-10-28T14:19:47.330Z,9.13
2017-10-28T14:22:14.956Z,8.30
2017-10-28T14:24:42.567Z,14.37
2017-10-28T14:27:10.995Z,7.83
2017-10-28T14:29:38.621Z,12.37
2017-10-28T14:32:07.042Z,7.87
2017-10-28T14:34:34.660Z,10.57
2017-10-28T14:37:03.117Z,16.73
2017-10-28T14:39:30.764Z,10.50
2017-10-28T14:41:58.395Z,11.57
2017-10-28T14:44:26.070Z,9.70
2017-10-28T14:46:53.692Z,11.97
2017-10-28T14:49:21.371Z,9.13
2017-10-28T14:51:48.991Z,9.43
2017-10-28T14:54:17.432Z,10.27
2017-10-28T14:56:45.034Z,8.23
2017-10-28T14:59:13.471Z,13.13
2017-10-28T15:01:41.157Z,10.37
2017-10-28T15:04:09.618Z,7.80
2017-10-28T15:06:37.337Z,11.00
2017-10-28T15:09:05.055Z,8.63
2017-10-28T15:11:32.706Z,8.00
2017-10-28T15:14:01.108Z,11.67
2017-10-28T15:16:29.495Z,8.83
2017-10-28T15:18:57.167Z,11.57
2017-10-28T15:21:24.788Z,9.60
2017-10-28T15:23:52.442Z,8.93
2017-10-28T15:26:20.084Z,10.77
2017-10-28T15:28:48.229Z,9.00
2017-10-28T15:31:15.850Z,9.80
2017-10-28T15:33:44.256Z,10.43
2017-10-28T15:36:11.945Z,10.03
2017-10-28T15:38:39.607Z,15.83
2017-10-28T15:41:07.269Z,9.47
2017-10-28T15:43:34.913Z,10.70
2017-10-28T15:46:02.702Z,12.73
2017-10-28T15:48:30.364Z,7.30
2017-10-28T15:50:57.963Z,11.53
2017-10-28T15:53:26.379Z,8.13
2017-10-28T15:55:53.986Z,9.93
2017-10-28T15:58:22.404Z,10.03
2017-10-28T16:00:52.302Z,10.17
2017-10-28T16:03:23.597Z,12.23
2017-10-28T16:05:52.871Z,11.83
2017-10-28T16:08:21.592Z,16.30
2017-10-28T16:10:53.065Z,11.07
2017-10-28T16:13:23.266Z,6.13
2017-10-28T16:15:52.015Z,9.57
2017-10-28T16:18:20.822Z,10.30
2017-10-28T16:20:49.317Z,8.87
2017-10-28T16:23:18.718Z,6.33
2017-10-28T16:25:46.378Z,13.90
2017-10-28T16:28:14.026Z,8.37
2017-10-28T16:30:41.680Z,8.67
2017-10-28T16:33:09.317Z,12.23
2017-10-28T16:35:36.927Z,7.60
2017-10-28T16:38:05.375Z,12.10
2017-10-28T16:40:33.006Z,11.33
2017-10-28T16:43:00.652Z,11.33
2017-10-28T16:48:00.140Z,8.00
2017-10-28T16:50:28.553Z,11.43
2017-10-28T16:52:56.937Z,9.53
2017-10-28T16:55:25.433Z,12.63
2017-10-28T16:57:53.185Z,14.50
2017-10-28T17:00:20.955Z,15.90
2017-10-28T17:02:48.604Z,16.83
2017-10-28T17:05:16.232Z,14.83
2017-10-28T17:07:44.654Z,12.03
2017-10-28T17:10:12.279Z,10.53
2017-10-28T17:12:39.968Z,8.37
2017-10-28T17:15:07.611Z,11.97
2017-10-28T17:17:35.229Z,14.60
2017-10-28T17:20:02.879Z,12.20
2017-10-28T17:22:30.512Z,11.73
2017-10-28T17:24:58.159Z,13.63
2017-10-28T17:27:25.812Z,12.33
2017-10-28T17:29:53.477Z,9.33
2017-10-28T17:32:21.182Z,14.60
2017-10-28T17:34:48.950Z,13.43
2017-10-28T17:37:17.516Z,9.67
2017-10-28T17:39:45.180Z,10.37
2017-10-28T17:42:12.847Z,12.20
2017-10-28T17:44:40.507Z,11.50
2017-10-28T17:47:08.208Z,14.17
2017-10-28T17:49:35.836Z,8.10
2017-10-28T17:52:03.467Z,11.93
2017-10-28T17:54:31.114Z,8.20
2017-10-28T17:56:58.764Z,11.20
2017-10-28T17:59:26.640Z,6.10
2017-10-28T18:01:54.424Z,7.70
2017-10-28T18:04:22.408Z,7.43
2017-10-28T18:06:50.220Z,6.47
2017-10-28T18:09:18.004Z,10.23
2017-10-28T18:11:45.901Z,8.97
2017-10-28T18:14:13.724Z,9.30
2017-10-28T18:16:41.518Z,6.07
2017-10-28T18:19:10.049Z,9.43
2017-10-28T18:21:37.859Z,7.33
2017-10-28T18:24:05.483Z,8.30
2017-10-28T18:26:33.116Z,6.13
2017-10-28T18:29:00.879Z,9.43
2017-10-28T18:31:29.351Z,10.13
2017-10-28T18:33:57.755Z,7.10
2017-10-28T18:36:25.388Z,10.57
2017-10-28T18:38:53.844Z,11.73
2017-10-28T18:41:21.503Z,7.97
2017-10-28T18:43:49.204Z,6.10
2017-10-28T18:46:17.003Z,6.47
2017-10-28T18:48:44.719Z,9.90
2017-10-28T18:51:12.458Z,7.70
2017-10-28T18:53:40.958Z,8.33
2017-10-28T18:56:09.471Z,11.50
2017-10-28T18:58:37.177Z,7.00
2017-10-28T19:01:05.080Z,4.67
2017-10-28T19:03:32.816Z,6.17
2017-10-28T19:06:01.199Z,7.50
2017-10-28T19:08:28.908Z,6.53
2017-10-28T19:10:56.580Z,4.47
2017-10-28T19:13:24.324Z,5.00
2017-10-28T19:15:52.026Z,5.87
2017-10-28T19:18:19.820Z,3.70
2017-10-28T19:20:47.669Z,7.20
2017-10-28T19:23:16.157Z,5.53
2017-10-28T19:25:44.670Z,4.77
2017-10-28T19:28:12.381Z,6.33
2017-10-28T19:30:40.148Z,4.43
2017-10-28T19:33:08.638Z,10.40
2017-10-28T19:35:37.143Z,4.93
2017-10-28T19:38:04.909Z,7.53
2017-10-28T19:40:32.573Z,3.93
2017-10-28T19:43:00.273Z,3.80
2017-10-28T19:45:28.192Z,4.60
2017-10-28T19:47:56.174Z,4.50
2017-10-28T19:50:24.944Z,3.23
2017-10-28T19:52:52.667Z,2.73
2017-10-28T19:55:21.119Z,4.00
2017-10-28T19:57:48.775Z,3.90
2017-10-28T20:00:16.494Z,4.07
2017-10-28T20:02:44.194Z,4.80
2017-10-28T20:05:11.916Z,3.33
2017-10-28T20:07:39.640Z,3.30
2017-10-28T20:10:08.118Z,3.60
2017-10-28T20:12:36.751Z,3.57
2017-10-28T20:15:04.498Z,2.90
2017-10-28T20:17:32.369Z,2.30
2017-10-28T20:20:00.100Z,5.60
2017-10-28T20:22:28.518Z,4.07
2017-10-28T20:24:56.156Z,6.40
2017-10-28T20:27:23.821Z,4.13
2017-10-28T20:29:51.585Z,3.83
2017-10-28T20:32:19.193Z,4.60
2017-10-28T20:34:46.815Z,2.33
2017-10-28T20:37:14.469Z,4.90
2017-10-28T20:39:42.321Z,5.37
2017-10-28T20:42:10.459Z,2.83
2017-10-28T20:44:40.392Z,4.77
2017-10-28T20:47:09.799Z,3.03
2017-10-28T20:49:39.393Z,5.00
2017-10-28T20:52:08.004Z,4.90
2017-10-28T20:54:37.194Z,3.30
2017-10-28T20:57:05.391Z,3.10
2017-10-28T20:59:34.524Z,8.80
2017-10-28T21:02:03.076Z,8.60
2017-10-28T21:04:31.307Z,5.67
2017-10-28T21:07:01.733Z,5.27
2017-10-28T21:09:30.814Z,5.70
2017-10-28T21:11:58.939Z,7.70
2017-10-28T21:14:27.281Z,3.83
2017-10-28T21:16:55.034Z,5.53
2017-10-28T21:19:22.910Z,6.77
2017-10-28T21:21:51.381Z,5.20
2017-10-28T21:24:19.168Z,8.50
2017-10-28T21:26:47.309Z,5.03
2017-10-28T21:29:16.019Z,13.23
2017-10-28T21:31:44.129Z,4.97
2017-10-28T21:34:12.006Z,4.70
2017-10-28T21:36:39.760Z,5.63
2017-10-28T21:39:07.955Z,5.13
2017-10-28T21:41:36.139Z,8.00
2017-10-28T21:44:04.702Z,6.03
2017-10-28T21:46:32.405Z,7.20
2017-10-28T21:49:00.077Z,7.43
2017-10-28T21:51:27.716Z,5.83
2017-10-28T21:53:55.363Z,5.03
2017-10-28T21:56:23.768Z,3.20
2017-10-28T21:58:51.389Z,12.77
2017-10-28T22:01:19.083Z,6.90
2017-10-28T22:03:46.712Z,4.50
2017-10-28T22:06:15.106Z,4.97
2017-10-28T22:08:42.756Z,6.47
2017-10-28T22:11:11.152Z,6.67
2017-10-28T22:13:38.814Z,4.03
2017-10-28T22:16:06.439Z,4.80
2017-10-28T22:18:34.114Z,7.43
2017-10-28T22:21:02.568Z,11.23
2017-10-28T22:23:30.183Z,6.77
2017-10-28T22:25:57.832Z,4.63
2017-10-28T22:28:25.459Z,5.90
2017-10-28T22:30:53.105Z,13.80
2017-10-28T22:33:20.734Z,5.83
2017-10-28T22:35:48.436Z,4.97
2017-10-28T22:38:16.173Z,7.90
2017-10-28T22:40:43.823Z,7.17
2017-10-28T22:43:11.487Z,9.10
2017-10-28T22:45:39.088Z,6.10
2017-10-28T22:48:07.497Z,6.70
2017-10-28T22:50:35.188Z,11.53
2017-10-28T22:53:02.946Z,7.57
2017-10-28T22:55:30.621Z,7.90
2017-10-28T22:57:58.270Z,8.53
2017-10-28T23:00:25.944Z,5.27
2017-10-28T23:02:53.567Z,8.73
2017-10-28T23:05:21.202Z,9.43
2017-10-28T23:07:48.819Z,8.63
2017-10-28T23:10:16.472Z,7.70
2017-10-28T23:12:44.076Z,6.10
2017-10-28T23:15:12.483Z,10.43
2017-10-28T23:17:40.146Z,7.73
2017-10-28T23:20:07.770Z,7.27
2017-10-28T23:22:36.168Z,7.10
2017-10-28T23:25:03.783Z,7.10
2017-10-28T23:27:31.442Z,8.97
2017-10-28T23:29:59.048Z,8.63
2017-10-28T23:32:26.737Z,8.13
2017-10-28T23:34:54.403Z,5.90
2017-10-28T23:37:22.035Z,10.40
2017-10-28T23:39:49.729Z,12.40
2017-10-28T23:42:17.376Z,8.10
2017-10-28T23:44:45.055Z,16.90
2017-10-28T23:47:12.695Z,10.87
2017-10-28T23:49:41.186Z,10.03
2017-10-28T23:52:08.844Z,8.60
2017-10-28T23:54:36.464Z,9.70
2017-10-28T23:57:04.132Z,8.47
2017-10-28T23:59:31.756Z,12.40
